Agency, MO

6:38 AM CDT on April 21, 2015 (GMT -0500)
East Saint Joseph | | Change Station
CLOSE
Current Station
Personal Weather Station
Location: St. Joseph, MO
Elevation: 850 ft
Nearby Weather Stations

Elev 850 ft 39.75 °N, 94.75 °W | Updated 0 second ago

Mostly Cloudy
Mostly Cloudy
43.0 °F
Feels Like 37 °F
N
12.0
Wind Variable Wind from WNW
Gusts 18.0 mph

Today
High -- | Low -- °F
--% Chance of Precip.
Yesterday
High -- | Low -- °F
Precip. -- in
6:32 AM 8:02 PM
Waxing Crescent, 10% visible
Pressure 29.84 in
Visibility 10.0 miles
Clouds Mostly Cloudy 11000 ft
Windchill 37 °F
Dew Point 15 °F
Humidity 32%
Rainfall 0.00 in
Snow Depth Not available.
UV 0.0 out of 12
Pollen 10.50 out of 12
Air Quality Not available.
Flu Activity Local Activity
METAR KSTJ 211053Z AUTO 25008KT 10SM BKN110 08/M01 A2984 RMK AO2 SLP105 T00781006

More Conditions Fewer Conditions

Pressure 29.84 in
Visibility 10.0 miles
Clouds Mostly Cloudy 11000 ft
Windchill 37 °F
Dew Point 15 °F
Humidity 32%
Rainfall 0.00 in
Snow Depth Not available.
UV 0.0 out of 12
Pollen 10.50 out of 12
Air Quality Not available.
Flu Activity Local Activity
METAR KSTJ 211053Z AUTO 25008KT 10SM BKN110 08/M01 A2984 RMK AO2 SLP105 T00781006

More Conditions Fewer Conditions

10-Day Weather Forecast

Almanac

Astronomy

Apr. 21, 2015 Rise Set
Actual Time
Civil Twilight
Nautical Twilight
Astronomical Twilight
Moon
Length of Visible Light
Length of Day
Tomorrow will be .
, % of the Moon is Illuminated

Today's Extremes

State Highs State Lows

Community

WunderPhotos

Upload Photos

1,815,348 photos uploaded!

WunderBlogs® & News

Nearby

Air Quality

  Air Quality AQ Index Pollutant
Not available.

Snow Depth

Station Depth Elevation

Earthquake Activity

City Distance Mag. Time & Date
Minimum magnitude displayed is 2.5.

Coastal Water Temperatures

Place Temperature

Stations

Nearby Weather Stations

Station Location Temp. Windchill Dew Point Humidity Wind Precip. Elev Updated Type